createdAt,value
2022-12-31T14:20:06.815Z,1.40
2022-12-31T14:23:00.270Z,7.67
2022-12-31T14:25:33.024Z,1.60
2022-12-31T14:28:03.040Z,2.30
2022-12-31T14:30:34.132Z,1.67
2022-12-31T14:33:25.454Z,3.43
2022-12-31T14:36:09.992Z,4.57
2022-12-31T14:38:52.544Z,6.00
2022-12-31T14:41:39.119Z,3.40
2022-12-31T14:44:26.893Z,2.60
2022-12-31T14:47:07.453Z,2.70
2022-12-31T14:49:33.831Z,2.70
2022-12-31T14:52:21.360Z,2.33
2022-12-31T14:55:09.700Z,2.03
2022-12-31T14:58:17.225Z,1.67
2022-12-31T15:00:39.803Z,1.70
2022-12-31T15:03:34.574Z,2.40
2022-12-31T15:06:18.988Z,1.90
2022-12-31T15:08:59.945Z,2.13
2022-12-31T15:11:46.038Z,1.70
2022-12-31T15:14:24.616Z,1.97
2022-12-31T15:17:10.769Z,2.30
2022-12-31T15:19:56.368Z,2.63
2022-12-31T15:22:46.394Z,3.80
2022-12-31T15:25:38.452Z,3.47
2022-12-31T15:28:22.821Z,3.40
2022-12-31T15:30:50.568Z,3.20
2022-12-31T15:33:21.872Z,3.13
2022-12-31T15:35:51.556Z,3.60
2022-12-31T15:38:30.145Z,6.93
2022-12-31T15:40:57.106Z,4.00
2022-12-31T15:43:33.726Z,4.20
2022-12-31T15:46:01.847Z,3.27
2022-12-31T15:48:41.731Z,2.80
2022-12-31T15:51:15.565Z,3.37
2022-12-31T15:53:46.940Z,2.73
2022-12-31T15:56:22.387Z,3.70
2022-12-31T15:58:54.618Z,3.50
2022-12-31T16:01:24.214Z,2.60
2022-12-31T16:04:06.888Z,3.40
2022-12-31T16:06:37.435Z,4.30
2022-12-31T16:09:08.640Z,2.93
2022-12-31T16:11:41.778Z,3.30
2022-12-31T16:14:26.552Z,4.60
2022-12-31T16:16:58.731Z,3.60
2022-12-31T16:19:28.385Z,3.07
2022-12-31T16:21:57.065Z,3.43
2022-12-31T16:24:37.474Z,2.57
2022-12-31T16:27:16.817Z,3.23
2022-12-31T16:29:52.252Z,5.03
2022-12-31T16:32:22.081Z,3.63
2022-12-31T16:34:48.700Z,2.93
2022-12-31T16:37:20.681Z,3.50
2022-12-31T16:39:56.734Z,3.80
2022-12-31T16:42:28.615Z,3.10
2022-12-31T16:44:57.463Z,3.40
2022-12-31T16:47:36.224Z,3.33
2022-12-31T16:50:08.038Z,4.87
2022-12-31T16:52:40.960Z,3.10
2022-12-31T16:55:10.208Z,3.20
2022-12-31T16:57:37.344Z,3.30
2022-12-31T17:00:06.843Z,3.87
2022-12-31T17:02:44.014Z,3.33
2022-12-31T17:05:22.296Z,2.90
2022-12-31T17:07:49.127Z,3.77
2022-12-31T17:10:15.553Z,2.93
2022-12-31T17:13:25.593Z,2.97
2022-12-31T17:15:41.195Z,3.40
2022-12-31T17:18:08.287Z,3.43
2022-12-31T17:20:35.020Z,5.43
2022-12-31T17:23:05.667Z,3.20
2022-12-31T17:25:35.968Z,3.83
2022-12-31T17:28:05.456Z,3.70
2022-12-31T17:30:40.083Z,4.77
2022-12-31T17:33:12.440Z,4.10
2022-12-31T17:35:43.673Z,4.10
2022-12-31T17:38:22.553Z,4.83
2022-12-31T17:40:52.833Z,4.17
2022-12-31T17:43:22.212Z,4.30
2022-12-31T17:45:51.390Z,3.80
2022-12-31T17:48:20.307Z,3.80
2022-12-31T17:50:48.976Z,3.57
2022-12-31T17:53:16.175Z,3.93
2022-12-31T17:55:48.075Z,3.77
2022-12-31T17:58:18.462Z,4.43
2022-12-31T18:00:45.133Z,4.00
2022-12-31T18:03:11.850Z,4.50
2022-12-31T18:05:38.453Z,4.67
2022-12-31T18:08:05.174Z,5.00
2022-12-31T18:10:36.410Z,5.10
2022-12-31T18:13:05.687Z,3.37
2022-12-31T18:15:32.346Z,3.97
2022-12-31T18:17:58.893Z,4.50
2022-12-31T18:20:26.325Z,4.67
2022-12-31T18:22:52.970Z,4.27
2022-12-31T18:25:22.422Z,5.97
2022-12-31T18:27:52.216Z,6.80
2022-12-31T18:30:19.996Z,6.53
2022-12-31T18:32:46.856Z,4.80
2022-12-31T18:35:48.565Z,4.93
2022-12-31T18:38:03.697Z,4.10
2022-12-31T18:40:30.379Z,4.53
2022-12-31T18:43:02.695Z,4.33
2022-12-31T18:45:31.303Z,4.10
2022-12-31T18:47:57.835Z,6.97
2022-12-31T18:50:24.384Z,5.80
2022-12-31T18:52:50.865Z,7.00
2022-12-31T18:55:26.321Z,5.40
2022-12-31T18:57:53.985Z,4.00
2022-12-31T19:00:20.689Z,4.80
2022-12-31T19:02:47.183Z,4.97
2022-12-31T19:05:23.728Z,5.23
2022-12-31T19:07:50.172Z,5.03
2022-12-31T19:10:17.041Z,5.20
2022-12-31T19:12:44.400Z,5.60
2022-12-31T19:15:39.153Z,4.87
2022-12-31T19:18:15.807Z,4.77
2022-12-31T19:20:43.540Z,5.03
2022-12-31T19:23:24.009Z,5.10
2022-12-31T19:25:51.561Z,5.07
2022-12-31T19:28:24.204Z,5.10
2022-12-31T19:30:55.762Z,5.00
2022-12-31T19:33:22.524Z,6.70
2022-12-31T19:35:49.597Z,7.00
2022-12-31T19:38:24.341Z,6.73
2022-12-31T19:40:52.414Z,5.80
2022-12-31T19:43:21.373Z,5.40
2022-12-31T19:45:48.860Z,5.90
2022-12-31T19:48:19.047Z,5.70
2022-12-31T19:50:48.826Z,5.43
2022-12-31T19:53:19.647Z,6.00
2022-12-31T19:55:46.319Z,5.23
2022-12-31T19:58:19.279Z,5.63
2022-12-31T20:00:54.567Z,6.90
2022-12-31T20:03:23.888Z,5.17
2022-12-31T20:05:50.627Z,4.83
2022-12-31T20:08:20.249Z,5.57
2022-12-31T20:10:46.905Z,5.27
2022-12-31T20:13:13.310Z,4.83
2022-12-31T20:15:40.444Z,4.80
2022-12-31T20:18:06.947Z,5.10
2022-12-31T20:20:33.415Z,4.50
2022-12-31T20:22:59.942Z,5.03
2022-12-31T20:25:26.472Z,6.93
2022-12-31T20:27:54.688Z,5.37
2022-12-31T20:30:22.954Z,7.53
2022-12-31T20:32:52.104Z,7.20
2022-12-31T20:35:19.645Z,8.57
2022-12-31T20:37:49.148Z,5.53
2022-12-31T20:40:18.527Z,5.60
2022-12-31T20:42:47.116Z,4.63
2022-12-31T20:45:13.710Z,4.90
2022-12-31T20:47:40.972Z,6.27
2022-12-31T20:50:12.194Z,5.67
2022-12-31T20:52:39.239Z,6.63
2022-12-31T20:55:06.207Z,6.47
2022-12-31T20:57:35.630Z,5.47
2022-12-31T21:00:06.614Z,6.07
2022-12-31T21:02:42.284Z,5.80
2022-12-31T21:05:09.987Z,7.13
2022-12-31T21:07:36.595Z,6.23
2022-12-31T21:10:03.544Z,5.77
2022-12-31T21:12:45.571Z,5.20
2022-12-31T21:15:13.708Z,4.57
2022-12-31T21:17:42.093Z,4.77
2022-12-31T21:20:14.717Z,4.97
2022-12-31T21:22:41.207Z,5.70
2022-12-31T21:25:07.893Z,5.67
2022-12-31T21:27:35.825Z,5.60
2022-12-31T21:30:18.440Z,6.03
2022-12-31T21:32:45.698Z,5.17
2022-12-31T21:35:42.324Z,6.40
2022-12-31T21:38:07.578Z,7.00
2022-12-31T21:40:34.230Z,5.50
2022-12-31T21:43:00.782Z,6.00
2022-12-31T21:45:27.234Z,5.37
2022-12-31T21:48:12.196Z,5.00
2022-12-31T21:50:38.581Z,5.63
2022-12-31T21:53:04.982Z,5.60
2022-12-31T21:55:50.129Z,4.80
2022-12-31T21:58:26.503Z,5.20
2022-12-31T22:01:13.741Z,4.63
2022-12-31T22:03:40.886Z,4.40
2022-12-31T22:06:14.309Z,5.67
2022-12-31T22:08:45.560Z,5.70
2022-12-31T22:11:13.156Z,5.70
2022-12-31T22:13:40.095Z,6.20
2022-12-31T22:16:07.745Z,5.70
2022-12-31T22:18:38.714Z,5.70
2022-12-31T22:21:18.294Z,3.97
2022-12-31T22:23:47.039Z,4.47
2022-12-31T22:26:15.649Z,4.30
2022-12-31T22:28:43.832Z,4.90
2022-12-31T22:31:21.114Z,5.07
2022-12-31T22:33:48.175Z,5.13
2022-12-31T22:36:17.950Z,4.90
2022-12-31T22:38:48.509Z,4.40
2022-12-31T22:41:18.474Z,5.60
2022-12-31T22:43:57.197Z,5.23
2022-12-31T22:46:28.493Z,5.00
2022-12-31T22:48:58.307Z,5.30
2022-12-31T22:51:25.690Z,5.30
2022-12-31T22:53:55.974Z,6.67
2022-12-31T22:56:22.460Z,7.50
2022-12-31T22:58:49.166Z,9.87
2022-12-31T23:01:19.653Z,13.23
2022-12-31T23:03:48.252Z,28.20
2022-12-31T23:06:15.375Z,35.30
2022-12-31T23:09:02.115Z,38.33
2022-12-31T23:11:29.192Z,35.45
2022-12-31T23:14:13.978Z,38.03
2022-12-31T23:16:59.264Z,38.10
2022-12-31T23:20:04.252Z,40.73
2022-12-31T23:22:49.100Z,41.37
2022-12-31T23:25:15.695Z,37.03
2022-12-31T23:27:42.207Z,34.27
2022-12-31T23:30:09.142Z,33.30
2022-12-31T23:32:35.613Z,35.20
2022-12-31T23:35:07.807Z,30.07
2022-12-31T23:37:36.309Z,25.87
2022-12-31T23:40:02.734Z,27.40
2022-12-31T23:42:29.161Z,22.87
2022-12-31T23:44:55.559Z,26.43
2022-12-31T23:47:22.030Z,26.60
2022-12-31T23:49:48.518Z,24.23
2022-12-31T23:52:14.973Z,20.27
2022-12-31T23:54:41.482Z,20.33
2022-12-31T23:57:08.104Z,22.80
2022-12-31T23:59:34.549Z,24.57
